Flight Track Log - Related Links

Times and Time Zones

All times are in EDT time to prevent confusion due to time zone crossing. See the GLA63P flight status page for this flight to view local times or setup timezone preferences in your user account.

Time Position Orientation Groundspeed Altitude Reporting Facility
EDT Latitude Longitude Course Direction KTS MPH feet Rate Location/Type
Fri 08:22:00 AM 34.6631 -112.4744 North 164 189 8,100  Level Los Angeles Center
Fri 08:23:01 AM 34.7086 -112.4850 349° North 167 192 10,000 1,537 Climbing Los Angeles Center
Fri 08:24:01 AM 34.7639 -112.4764 North 189 217 11,200 1,400 Climbing Los Angeles Center
Fri 08:25:01 AM 34.8247 -112.4731 North 213 245 12,800 1,450 Climbing Los Angeles Center
Fri 08:26:01 AM 34.8861 -112.4725 360° North 221 254 14,100 1,333 Climbing Los Angeles Center
Fri 08:27:00 AM 34.9951 -112.4572 North  Level FlightAware Approximate
Fri 08:27:07 AM 34.9619 -112.4669 North 226 260 15,600  Level Albuquerque Center
Fri 08:28:08 AM 35.0261 -112.4603 North 230 265 16,800 1,033 Climbing Albuquerque Center
Fri 08:29:09 AM 35.0894 -112.4489 North 231 266 17,700 793 Climbing Albuquerque Center
Fri 08:30:09 AM 35.1539 -112.4489 360° North 233 268 18,400 744 Climbing Albuquerque Center
Fri 08:31:10 AM 35.2186 -112.4536 357° North 233 268 19,200 744 Climbing Albuquerque Center
Fri 08:32:10 AM 35.2856 -112.4469 North 239 275 19,900 645 Climbing Albuquerque Center
Fri 08:33:11 AM 35.3525 -112.4350 North 243 280 20,500 632 Climbing Albuquerque Center
Fri 08:34:04 AM 35.4206 -112.4322 North 244 281 21,100 637 Climbing Los Angeles Center
Fri 08:35:04 AM 35.4881 -112.4269 North 245 282 21,700 450 Climbing Los Angeles Center
Fri 08:36:04 AM 35.5556 -112.4181 North 245 282 22,000 149 Climbing Los Angeles Center
Fri 08:37:05 AM 35.6222 -112.3919 18° North 263 303 22,000  Level Los Angeles Center
Fri 08:38:05 AM 35.6842 -112.3386 35° Northeast 275 316 22,000  Level Los Angeles Center
Fri 08:39:05 AM 35.7475 -112.2894 32° Northeast 272 313 22,000  Level Los Angeles Center
Fri 08:40:06 AM 35.8144 -112.2528 24° Northeast 265 305 22,000  Level Los Angeles Center
Fri 08:41:06 AM 35.8769 -112.2072 31° Northeast 265 305 22,000  Level Los Angeles Center
Fri 08:42:06 AM 35.9353 -112.1503 38° Northeast 268 308 22,000  Level Los Angeles Center
Fri 08:43:07 AM 35.9978 -112.1025 32° Northeast 266 306 22,000  Level Los Angeles Center
Fri 08:44:07 AM 36.0619 -112.0569 30° Northeast 266 306 22,000  Level Los Angeles Center
Fri 08:45:08 AM 36.1267 -112.0131 29° Northeast 266 306 22,000  Level Los Angeles Center
Fri 08:46:08 AM 36.2058 -111.9683 25° Northeast 265 305 22,000 50 Level Los Angeles Center
Fri 08:47:08 AM 36.2689 -111.9172 33° Northeast 269 310 22,100 50 Climbing Los Angeles Center
Fri 08:48:09 AM 36.3300 -111.8622 36° Northeast 272 313 22,100 -48 Level Los Angeles Center
Fri 08:49:14 AM 36.3953 -111.8217 27° Northeast 270 311 22,000 -48 Descending Denver Center
Fri 08:50:15 AM 36.4597 -111.7747 30° Northeast 269 310 22,000  Level Denver Center
Fri 08:51:16 AM 36.5219 -111.7225 34° Northeast 270 311 22,000  Level Denver Center
Fri 08:52:16 AM 36.5878 -111.6767 29° Northeast 271 312 22,000  Level Denver Center
Fri 08:53:17 AM 36.6539 -111.6267 31° Northeast 276 318 22,000 49 Level Denver Center
Fri 08:54:18 AM 36.7175 -111.5767 32° Northeast 274 315 22,100  Climbing Denver Center
Fri 08:55:19 AM 36.7975 -111.5194 30° Northeast 276 318 22,000 -49 Descending Denver Center
Fri 08:56:20 AM 36.8631 -111.4722 30° Northeast 275 316 22,000  Level Denver Center
Fri 08:57:21 AM 36.9303 -111.4253 29° Northeast 277 319 22,000  Level Denver Center
Fri 08:58:22 AM 36.9978 -111.3822 27° Northeast 275 316 22,000  Level Denver Center
Fri 08:59:24 AM 37.0592 -111.3333 32° Northeast 270 311 22,000  Level Denver Center
Fri 09:00:25 AM 37.1247 -111.2833 31° Northeast 276 318 22,000  Level Denver Center
Fri 09:01:26 AM 37.1917 -111.2356 30° Northeast 277 319 22,000  Level Denver Center
Fri 09:02:26 AM 37.2578 -111.1881 30° Northeast 276 318 22,000  Level Denver Center
Fri 09:03:27 AM 37.3244 -111.1411 29° Northeast 275 316 22,000  Level Denver Center
Fri 09:04:28 AM 37.3764 -111.0975 34° Northeast 280 322 22,000  Level Denver Center
Fri 09:05:29 AM 37.4553 -111.0378 31° Northeast 277 319 22,000  Level Denver Center
Fri 09:06:30 AM 37.5333 -110.9758 32° Northeast 276 318 22,000  Level Denver Center
Fri 09:07:31 AM 37.5981 -110.9250 32° Northeast 275 316 22,000  Level Denver Center
Fri 09:08:32 AM 37.6658 -110.8778 29° Northeast 277 319 22,000  Level Denver Center
Fri 09:09:33 AM 37.7161 -110.8342 34° Northeast 277 319 22,000  Level Denver Center
Fri 09:10:09 AM 37.7628 -110.7853 40° Northeast 274 315 22,000  Level Denver Center
Fri 09:11:10 AM 37.8250 -110.7261 37° Northeast 280 322 22,000 49 Level Denver Center
Fri 09:12:11 AM 37.8844 -110.6631 40° Northeast 281 323 22,100  Climbing Denver Center
Fri 09:13:12 AM 37.9444 -110.6042 38° Northeast 274 315 22,000 -49 Descending Denver Center
Fri 09:14:13 AM 38.0047 -110.5431 39° Northeast 277 319 22,000  Level Denver Center
Fri 09:15:14 AM 38.0675 -110.4850 36° Northeast 278 320 22,000 -98 Level Denver Center
Fri 09:16:15 AM 38.1303 -110.4111 43° Northeast 278 320 21,800 -541 Descending Denver Center
Fri 09:17:16 AM 38.1881 -110.3544 38° Northeast 275 316 20,900 -787 Descending Denver Center
Fri 09:18:17 AM 38.2444 -110.2939 40° Northeast 278 320 20,200 -836 Descending Denver Center
Fri 09:19:18 AM 38.3097 -110.2269 39° Northeast 270 311 19,200 -1,082 Descending Denver Center
Fri 09:20:19 AM 38.3644 -110.1700 39° Northeast 268 308 18,000 -932 Descending Denver Center
Fri 09:21:01 AM 38.4014 -110.1306 40° Northeast 269 310 17,600 -1,279 Descending Salt Lake Center
Fri 09:21:20 AM 38.4286 -110.0989 42° Northeast 270 311 16,700 -1,425 Descending Denver Center
Fri 09:22:21 AM 38.4864 -110.0403 38° Northeast 275 316 15,700 -1,377 Descending Denver Center
Fri 09:23:22 AM 38.5425 -109.9828 39° Northeast 272 313 13,900 -2,311 Descending Denver Center
Fri 09:24:23 AM 38.6067 -109.9108 41° Northeast 273 314 11,000 -2,705 Descending Denver Center
Fri 09:25:24 AM 38.6589 -109.8550 40° Northeast 265 305 8,400 -2,410 Descending Denver Center
Fri 09:26:25 AM 38.7017 -109.8097 40° Northeast 228 262 6,100 -1,377 Descending Denver Center
Fri 09:27:26 AM 38.7361 -109.7750 38° Northeast 201 231 5,600 -492 Descending Denver Center

Login

Don't have an account? Register now (free) for customized features, flight alerts, and more!